Time;durP1;ratioP1;P1;durP2;ratioP2;P2;SDS_P1;SDS_P2;PMS_P1;PMS_P2;Temp;Humidity;BMP_temperature;BMP_pressure;BME280_temperature;BME280_humidity;BME280_pressure;Samples;Min_cycle;Max_cycle;Signal;HPM_P1;HPM_P2
2021/09/14 00:02:23;;;;;;;5.10;3.20;;;12.40;99.90;12.40;100909.00;;;;4977328;28;103594;-65
2021/09/14 00:04:48;;;;;;;5.60;2.90;;;12.40;99.90;12.40;100917.00;;;;4958508;28;107996;-65
2021/09/14 00:07:14;;;;;;;3.53;2.60;;;12.40;99.90;12.40;100911.00;;;;4977139;28;118130;-65
2021/09/14 00:09:40;;;;;;;3.43;2.53;;;12.40;99.90;12.40;100916.00;;;;4977286;28;117579;-66
2021/09/14 00:12:06;;;;;;;2.90;2.57;;;12.40;99.90;12.40;100926.00;;;;4977061;28;110165;-67
2021/09/14 00:14:32;;;;;;;3.30;2.60;;;12.40;99.90;12.30;100927.00;;;;4959557;28;87517;-65
2021/09/14 00:16:58;;;;;;;2.57;2.37;;;12.30;99.90;12.40;100921.00;;;;4977652;28;88319;-66
2021/09/14 00:19:24;;;;;;;4.80;2.57;;;12.30;99.90;12.30;100926.00;;;;4976895;28;117767;-66
2021/09/14 00:21:49;;;;;;;2.57;2.37;;;12.30;99.90;12.30;100927.00;;;;4976463;28;110938;-66
2021/09/14 00:24:15;;;;;;;3.97;2.30;;;12.30;99.90;12.30;100924.00;;;;4976338;28;104491;-65
2021/09/14 00:26:41;;;;;;;3.10;2.70;;;12.30;99.90;12.30;100929.00;;;;4976024;28;117937;-66
2021/09/14 00:29:07;;;;;;;5.07;2.53;;;12.30;99.90;12.20;100923.00;;;;4976521;28;117911;-65
2021/09/14 00:31:33;;;;;;;2.10;1.90;;;12.20;99.90;12.20;100924.00;;;;4978064;28;87666;-66
2021/09/14 00:33:59;;;;;;;2.90;2.50;;;12.20;99.90;12.10;100915.00;;;;4977750;28;87705;-66
2021/09/14 00:36:25;;;;;;;2.37;1.90;;;12.20;99.90;12.10;100917.00;;;;4977574;28;88610;-66
2021/09/14 00:38:51;;;;;;;2.63;2.43;;;12.10;99.90;12.10;100922.00;;;;4977188;28;118215;-65
2021/09/14 00:41:16;;;;;;;3.17;2.03;;;12.10;99.90;12.10;100921.00;;;;4977179;28;93317;-65
2021/09/14 00:43:42;;;;;;;3.80;2.70;;;12.10;99.90;12.10;100921.00;;;;4977394;28;87915;-66
2021/09/14 00:46:08;;;;;;;4.07;2.57;;;12.10;99.90;12.10;100913.00;;;;4976669;28;88894;-65
2021/09/14 00:48:33;;;;;;;2.23;1.80;;;12.10;99.90;12.10;100915.00;;;;4977129;28;97727;-66
2021/09/14 00:50:59;;;;;;;3.13;2.77;;;12.10;99.90;12.10;100916.00;;;;4975849;28;111401;-65
2021/09/14 00:53:26;;;;;;;2.43;1.90;;;12.10;99.90;12.10;100921.00;;;;4976390;28;94566;-66
2021/09/14 00:55:55;;;;;;;4.83;2.67;;;12.10;99.90;12.10;100912.00;;;;4976705;28;88119;-66
2021/09/14 00:58:21;;;;;;;4.60;2.80;;;12.00;99.90;12.10;100917.00;;;;4976756;28;98858;-65
2021/09/14 01:00:46;;;;;;;3.00;2.70;;;12.10;99.90;12.10;100908.00;;;;4957665;28;106796;-65
2021/09/14 01:03:12;;;;;;;2.50;2.30;;;12.10;99.90;12.10;100906.00;;;;4976824;28;108528;-65
2021/09/14 01:05:38;;;;;;;5.70;2.67;;;12.10;99.90;12.10;100907.00;;;;4957405;28;117489;-65
2021/09/14 01:08:06;;;;;;;2.60;2.40;;;12.10;99.90;12.10;100909.00;;;;4975602;28;118814;-64
2021/09/14 01:10:33;;;;;;;3.17;2.33;;;12.10;99.90;12.10;100898.00;;;;4976802;28;88940;-66
2021/09/14 01:12:58;;;;;;;4.37;2.53;;;12.10;99.90;12.10;100907.00;;;;4957917;28;88063;-66
2021/09/14 01:15:25;;;;;;;5.70;3.33;;;12.10;99.90;12.00;100906.00;;;;4975571;28;119546;-66
2021/09/14 01:17:51;;;;;;;3.50;2.73;;;12.00;99.90;12.00;100904.00;;;;4976086;28;88591;-66
2021/09/14 01:20:16;;;;;;;3.80;2.83;;;12.00;99.90;11.90;100903.00;;;;4976223;28;110812;-66
2021/09/14 01:22:42;;;;;;;2.50;2.10;;;11.90;99.90;11.90;100902.00;;;;4975542;28;104064;-66
2021/09/14 01:25:20;;;;;;;7.17;3.40;;;11.90;99.90;11.80;100896.00;;;;4976227;28;87780;-66
2021/09/14 01:27:46;;;;;;;3.07;2.40;;;12.10;99.90;11.80;100901.00;;;;4976440;28;88558;-66
2021/09/14 01:30:14;;;;;;;3.87;2.83;;;11.80;99.90;11.70;100913.00;;;;4958238;28;90310;-66
2021/09/14 01:32:53;;;;;;;3.57;2.63;;;11.80;99.90;11.70;100909.00;;;;4976445;28;88005;-66
2021/09/14 01:35:22;;;;;;;2.40;2.20;;;11.70;99.90;11.70;100905.00;;;;4975285;28;88855;-66
2021/09/14 01:37:48;;;;;;;4.03;2.80;;;11.70;99.90;11.70;100900.00;;;;4976107;28;88572;-66
2021/09/14 01:40:15;;;;;;;2.67;2.20;;;11.70;99.90;11.60;100905.00;;;;4977023;28;87833;-66
2021/09/14 01:42:41;;;;;;;3.93;2.53;;;11.60;99.90;11.70;100906.00;;;;4976550;28;87694;-66
2021/09/14 01:45:08;;;;;;;3.70;2.70;;;11.60;99.90;11.60;100911.00;;;;4975899;28;87593;-66
2021/09/14 01:47:36;;;;;;;4.53;2.67;;;11.60;99.90;11.60;100904.00;;;;4975677;28;92898;-66
2021/09/14 01:50:04;;;;;;;3.40;2.53;;;11.60;99.90;11.60;100905.00;;;;4977249;28;87761;-66
2021/09/14 01:52:32;;;;;;;3.00;2.50;;;11.60;99.90;11.60;100904.00;;;;4976822;28;87001;-66
2021/09/14 01:55:11;;;;;;;4.30;2.93;;;11.60;99.90;11.60;100905.00;;;;4960718;28;87661;-66
2021/09/14 01:57:39;;;;;;;3.53;2.67;;;11.60;99.90;11.60;100901.00;;;;4984638;28;88730;-66
2021/09/14 02:00:11;;;;;;;3.90;3.07;;;11.60;99.90;11.60;100893.00;;;;4975785;28;88740;-66
2021/09/14 02:02:54;;;;;;;3.53;3.13;;;11.60;99.90;11.60;100907.00;;;;4976546;28;87814;-66
2021/09/14 02:05:40;;;;;;;2.77;2.43;;;11.60;99.90;11.50;100914.00;;;;4977008;28;88840;-66
2021/09/14 02:08:17;;;;;;;4.13;2.73;;;11.50;99.90;11.50;100905.00;;;;4975255;28;88954;-67
2021/09/14 02:40:53;;;;;;;6.00;2.90;;;11.50;99.90;11.50;100903.00;;;;4972960;28;87734;-66
2021/09/14 02:59:30;;;;;;;8.30;3.70;;;11.40;99.90;11.40;100881.00;;;;4979101;28;87737;-66
2021/09/14 03:01:56;;;;;;;4.47;3.13;;;11.40;99.90;11.40;100886.00;;;;4978104;28;117666;-66
2021/09/14 03:04:22;;;;;;;4.57;2.93;;;11.40;99.90;11.40;100876.00;;;;4977739;28;109240;-66
2021/09/14 03:06:47;;;;;;;3.37;3.07;;;11.40;99.90;11.30;100876.00;;;;4978070;28;110093;-66
2021/09/14 03:09:13;;;;;;;3.03;2.30;;;11.40;99.90;11.40;100880.00;;;;4977387;28;117165;-66
2021/09/14 03:11:38;;;;;;;5.27;3.37;;;11.30;99.90;11.30;100860.00;;;;4977725;28;117262;-66
2021/09/14 03:14:04;;;;;;;12.83;3.17;;;11.30;99.90;11.30;100865.00;;;;4960981;28;109894;-66
2021/09/14 03:16:30;;;;;;;2.83;2.50;;;11.30;99.90;11.30;100864.00;;;;4978093;28;107892;-66
2021/09/14 03:18:55;;;;;;;3.43;2.93;;;11.30;99.90;11.30;100862.00;;;;4977685;28;95384;-67
2021/09/14 03:21:21;;;;;;;5.97;3.43;;;11.30;99.90;11.30;100864.00;;;;4978958;28;89189;-66
2021/09/14 03:23:47;;;;;;;4.63;4.13;;;11.30;99.90;11.40;100859.00;;;;4977040;28;110447;-66
2021/09/14 03:26:13;;;;;;;4.00;3.53;;;11.70;99.90;11.40;100844.00;;;;4978217;28;87836;-66
2021/09/14 03:28:38;;;;;;;5.97;4.13;;;11.40;99.90;11.40;100857.00;;;;4977065;28;117574;-66
2021/09/14 03:31:05;;;;;;;4.90;3.50;;;11.40;99.90;11.40;100852.00;;;;4977546;28;116871;-67
2021/09/14 03:33:30;;;;;;;7.73;4.50;;;11.40;99.90;11.40;100847.00;;;;4976922;28;87977;-66
2021/09/14 03:35:56;;;;;;;5.83;4.10;;;11.40;99.90;11.40;100847.00;;;;4978946;28;86703;-66
2021/09/14 03:38:22;;;;;;;5.63;3.60;;;11.50;99.90;11.40;100847.00;;;;4976502;28;118085;-67
2021/09/14 03:40:48;;;;;;;5.23;3.63;;;11.50;99.90;11.40;100851.00;;;;4978060;28;112614;-66
2021/09/14 03:43:14;;;;;;;6.37;4.50;;;11.40;99.90;11.40;100837.00;;;;4976788;28;103385;-66
2021/09/14 03:45:44;;;;;;;6.03;4.07;;;11.50;99.90;11.40;100838.00;;;;4978393;28;87385;-66
2021/09/14 03:48:10;;;;;;;4.40;3.43;;;11.50;99.90;11.40;100847.00;;;;4977637;28;88845;-66
2021/09/14 03:50:36;;;;;;;4.80;3.87;;;11.40;99.90;11.40;100847.00;;;;4978316;28;98886;-66
2021/09/14 03:53:02;;;;;;;4.20;3.53;;;11.40;99.90;11.40;100850.00;;;;4977940;28;88554;-66
2021/09/14 03:55:28;;;;;;;5.00;4.07;;;11.40;99.90;11.40;100839.00;;;;4978170;28;88186;-66
2021/09/14 03:57:54;;;;;;;4.63;3.70;;;11.40;99.90;11.40;100834.00;;;;4976887;28;88077;-67
2021/09/14 04:00:20;;;;;;;7.10;4.13;;;11.40;99.90;11.40;100838.00;;;;4958446;28;116415;-66
2021/09/14 04:02:59;;;;;;;6.67;4.10;;;11.40;99.90;11.30;100835.00;;;;4977509;28;87913;-66
2021/09/14 04:05:44;;;;;;;5.23;3.20;;;11.40;99.90;11.30;100839.00;;;;4979001;28;88004;-66
2021/09/14 04:10:38;;;;;;;4.23;3.23;;;11.30;99.90;11.30;100833.00;;;;4974010;28;104193;-66
2021/09/14 04:13:05;;;;;;;4.30;3.70;;;11.30;99.90;11.30;100854.00;;;;4977320;28;95816;-66
2021/09/14 04:15:30;;;;;;;7.13;3.80;;;11.30;99.90;11.20;100833.00;;;;4959927;28;87682;-66
2021/09/14 04:17:56;;;;;;;4.23;3.83;;;11.20;99.90;11.20;100845.00;;;;4977028;28;98299;-67
2021/09/14 04:20:22;;;;;;;7.13;4.13;;;11.30;99.90;11.20;100830.00;;;;4976851;28;116082;-66
2021/09/14 04:22:47;;;;;;;6.17;3.37;;;11.20;99.90;11.20;100825.00;;;;4974983;28;93701;-66
2021/09/14 04:25:13;;;;;;;3.33;3.03;;;11.20;99.90;11.10;100832.00;;;;4977924;28;87284;-67
2021/09/14 04:27:39;;;;;;;3.33;3.03;;;11.20;99.90;11.10;100827.00;;;;4974917;28;87923;-66
2021/09/14 04:30:06;;;;;;;5.80;3.50;;;11.10;99.90;11.00;100825.00;;;;4976788;28;113908;-66
2021/09/14 04:32:36;;;;;;;4.23;3.40;;;11.10;99.90;11.00;100827.00;;;;4976699;28;94999;-66
2021/09/14 04:35:02;;;;;;;4.27;3.57;;;11.10;99.90;11.00;100828.00;;;;4977192;28;87788;-66
2021/09/14 04:37:28;;;;;;;5.67;3.33;;;11.00;99.90;11.00;100825.00;;;;4976701;28;88685;-67
2021/09/14 04:39:54;;;;;;;5.30;4.20;;;11.00;99.90;11.00;100824.00;;;;4975706;28;117616;-67
2021/09/14 04:42:20;;;;;;;6.00;4.43;;;11.00;99.90;11.00;100824.00;;;;4972756;28;110755;-67
2021/09/14 04:44:46;;;;;;;5.97;4.60;;;11.00;99.90;11.10;100825.00;;;;4964596;28;88058;-66
2021/09/14 04:47:12;;;;;;;5.57;4.43;;;11.00;99.90;11.10;100830.00;;;;4976472;28;111410;-67
2021/09/14 04:49:37;;;;;;;7.90;3.93;;;11.10;99.90;11.10;100832.00;;;;4976223;28;117752;-67
2021/09/14 04:52:06;;;;;;;5.57;4.40;;;11.10;99.90;11.10;100830.00;;;;4977528;28;87670;-68
2021/09/14 04:54:36;;;;;;;10.53;4.37;;;11.10;99.90;11.10;100836.00;;;;4976811;28;88201;-67
2021/09/14 04:57:03;;;;;;;4.93;4.23;;;11.20;99.90;11.20;100832.00;;;;4976189;28;89919;-67
2021/09/14 04:59:29;;;;;;;5.17;4.40;;;11.10;99.90;11.20;100831.00;;;;4976866;28;89648;-67
2021/09/14 05:01:55;;;;;;;3.93;3.40;;;11.20;99.90;11.20;100834.00;;;;4976976;28;87692;-68
2021/09/14 05:04:21;;;;;;;4.60;3.97;;;11.20;99.90;11.30;100835.00;;;;4958374;28;87828;-67
2021/09/14 05:06:47;;;;;;;5.80;4.20;;;11.20;99.90;11.30;100837.00;;;;4975088;28;117905;-67
2021/09/14 05:09:13;;;;;;;5.67;4.17;;;11.30;99.90;11.40;100832.00;;;;4975650;28;112355;-67
2021/09/14 05:11:38;;;;;;;5.23;3.90;;;11.30;99.90;11.40;100832.00;;;;4975351;28;90850;-67
2021/09/14 05:14:04;;;;;;;5.27;4.10;;;11.40;99.90;11.50;100831.00;;;;4976749;28;86961;-65
2021/09/14 05:16:30;;;;;;;6.40;4.10;;;11.40;99.90;11.50;100839.00;;;;4975891;28;116224;-65
2021/09/14 05:18:56;;;;;;;5.00;4.23;;;11.50;99.90;11.60;100838.00;;;;4975309;28;101856;-67
2021/09/14 05:21:23;;;;;;;6.87;4.57;;;11.50;99.90;11.70;100832.00;;;;4976589;28;88813;-67
2021/09/14 05:23:49;;;;;;;6.00;3.70;;;11.60;99.90;11.70;100829.00;;;;4976659;28;87633;-67
2021/09/14 05:26:14;;;;;;;5.50;3.63;;;11.70;99.90;11.80;100836.00;;;;4975385;28;119031;-66
2021/09/14 05:28:43;;;;;;;4.80;3.77;;;11.80;99.90;11.90;100825.00;;;;4974780;28;117036;-66
2021/09/14 05:31:09;;;;;;;7.90;3.93;;;11.90;99.90;12.00;100830.00;;;;4977187;28;87643;-66
2021/09/14 05:33:40;;;;;;;10.10;4.27;;;12.00;99.90;12.10;100826.00;;;;4975961;28;87969;-65
2021/09/14 05:36:07;;;;;;;5.07;4.03;;;12.10;99.90;12.30;100833.00;;;;4958148;28;88175;-65
2021/09/14 05:38:34;;;;;;;7.33;3.40;;;12.20;99.90;12.40;100838.00;;;;4976752;28;87479;-65
2021/09/14 05:41:00;;;;;;;6.13;4.13;;;12.30;99.90;12.60;100835.00;;;;4976889;28;87814;-65
2021/09/14 05:43:28;;;;;;;14.30;4.63;;;13.00;99.90;12.70;100830.00;;;;4975005;28;109990;-66
2021/09/14 05:45:55;;;;;;;5.80;4.23;;;12.70;99.90;12.90;100844.00;;;;4976039;28;89386;-66
2021/09/14 05:48:21;;;;;;;5.10;4.17;;;12.70;99.90;13.00;100843.00;;;;4983364;28;89187;-66
2021/09/14 05:50:47;;;;;;;5.03;3.77;;;12.90;99.90;13.10;100849.00;;;;4986078;28;88871;-66
2021/09/14 05:53:12;;;;;;;6.03;3.93;;;13.00;99.90;13.30;100837.00;;;;4974591;28;109375;-65
2021/09/14 05:55:39;;;;;;;6.20;3.97;;;13.20;99.90;13.50;100844.00;;;;4956580;28;116929;-65
2021/09/14 05:58:06;;;;;;;5.93;4.43;;;13.30;99.90;13.60;100844.00;;;;4976148;28;88529;-65
2021/09/14 06:00:34;;;;;;;8.93;3.53;;;13.50;99.90;13.80;100847.00;;;;4957829;28;87491;-65
2021/09/14 06:03:00;;;;;;;4.53;3.27;;;13.70;99.90;14.00;100843.00;;;;4976138;28;87228;-65
2021/09/14 06:05:26;;;;;;;4.90;3.90;;;13.80;99.90;14.10;100838.00;;;;4976238;28;94287;-65
2021/09/14 06:07:52;;;;;;;5.67;3.93;;;14.00;99.90;14.30;100839.00;;;;4974129;28;118540;-65
2021/09/14 06:10:18;;;;;;;8.73;3.93;;;14.20;99.90;14.50;100849.00;;;;4976095;28;88679;-64
2021/09/14 06:12:44;;;;;;;4.20;3.63;;;14.30;99.90;14.70;100849.00;;;;4975157;28;101831;-65
2021/09/14 06:15:10;;;;;;;4.70;4.17;;;14.50;99.90;14.80;100853.00;;;;4974860;28;117924;-65
2021/09/14 06:17:37;;;;;;;5.63;3.67;;;14.60;99.90;15.00;100847.00;;;;4974929;28;88788;-65
2021/09/14 06:20:04;;;;;;;3.87;3.37;;;14.80;99.90;15.10;100844.00;;;;4960226;28;87963;-64
2021/09/14 06:22:30;;;;;;;4.97;3.77;;;15.00;99.90;15.30;100853.00;;;;4975812;28;89581;-64
2021/09/14 06:24:56;;;;;;;8.60;3.80;;;15.00;99.90;15.50;100844.00;;;;4974351;28;117192;-64
2021/09/14 06:27:21;;;;;;;4.55;3.40;;;15.30;99.90;15.70;100855.00;;;;4974781;28;116963;-65
2021/09/14 06:29:47;;;;;;;4.97;3.10;;;15.50;99.90;15.90;100850.00;;;;4974500;28;110212;-65
2021/09/14 06:32:13;;;;;;;8.20;3.67;;;15.70;99.90;16.10;100847.00;;;;4975654;28;87672;-64
2021/09/14 06:34:39;;;;;;;5.88;4.05;;;15.90;99.90;16.30;100846.00;;;;4975540;28;90026;-65
2021/09/14 06:37:08;;;;;;;4.15;3.80;;;16.10;99.90;16.50;100848.00;;;;4974950;28;96204;-64
2021/09/14 06:39:34;;;;;;;9.85;4.10;;;16.30;99.90;16.70;100839.00;;;;4975643;28;87653;-63
2021/09/14 06:42:00;;;;;;;4.53;3.55;;;16.50;99.90;16.90;100839.00;;;;4976051;28;87887;-65
2021/09/14 06:44:26;;;;;;;7.22;3.72;;;16.70;99.90;17.10;100851.00;;;;4973689;28;118049;-63
2021/09/14 06:46:52;;;;;;;6.38;3.47;;;16.90;99.90;17.20;100855.00;;;;4973288;28;118510;-66
2021/09/14 06:49:19;;;;;;;6.50;3.42;;;17.00;99.90;17.40;100849.00;;;;4973960;28;110770;-64
2021/09/14 06:51:45;;;;;;;6.93;2.88;;;17.20;99.90;17.60;100855.00;;;;4975217;28;87116;-65
2021/09/14 06:54:11;;;;;;;5.70;3.80;;;17.60;99.90;17.80;100856.00;;;;4940239;28;90640;-65
2021/09/14 06:56:37;;;;;;;4.05;3.28;;;17.50;99.90;18.00;100864.00;;;;4975623;28;87945;-64
2021/09/14 06:59:03;;;;;;;4.22;3.13;;;17.70;99.90;18.10;100857.00;;;;4974109;28;110207;-64
2021/09/14 07:01:29;;;;;;;5.13;2.83;;;17.80;99.90;18.30;100864.00;;;;4974537;28;108954;-64
2021/09/14 07:03:55;;;;;;;7.57;3.25;;;18.10;99.90;18.40;100860.00;;;;4974895;28;88492;-64
2021/09/14 07:06:21;;;;;;;4.93;3.55;;;18.20;99.90;18.50;100860.00;;;;4975331;28;87812;-64
2021/09/14 07:08:47;;;;;;;3.33;2.63;;;18.30;99.90;18.60;100863.00;;;;4975056;28;87874;-64
2021/09/14 07:11:13;;;;;;;6.75;3.35;;;18.40;99.90;18.80;100860.00;;;;4975105;28;87972;-65
2021/09/14 07:13:39;;;;;;;4.22;3.25;;;18.50;99.90;18.90;100853.00;;;;4974784;28;89537;-64
2021/09/14 07:16:05;;;;;;;5.22;3.05;;;18.70;99.90;19.00;100862.00;;;;4974348;28;118025;-65
2021/09/14 07:18:32;;;;;;;4.75;3.28;;;18.80;99.90;19.20;100864.00;;;;4973476;28;111659;-65
2021/09/14 07:20:58;;;;;;;3.45;2.83;;;18.90;99.90;19.40;100863.00;;;;4975400;28;87690;-67
2021/09/14 07:23:24;;;;;;;3.83;3.33;;;19.10;99.90;19.50;100863.00;;;;4973669;28;96927;-67
2021/09/14 07:25:50;;;;;;;6.18;3.17;;;19.30;99.90;19.80;100868.00;;;;4974890;28;88626;-67
2021/09/14 07:28:16;;;;;;;3.50;2.90;;;19.60;99.90;20.10;100867.00;;;;4974148;28;87925;-67
2021/09/14 07:30:43;;;;;;;3.25;2.95;;;19.70;99.90;20.30;100865.00;;;;4975276;28;88105;-67
2021/09/14 07:33:09;;;;;;;4.50;2.50;;;19.80;99.90;20.50;100867.00;;;;4974248;28;88675;-67
2021/09/14 07:35:35;;;;;;;12.70;3.00;;;20.20;99.90;20.70;100862.00;;;;4959731;28;87993;-67
2021/09/14 07:38:02;;;;;;;4.57;2.90;;;20.40;99.90;20.90;100869.00;;;;4977804;28;87890;-67
2021/09/14 07:40:28;;;;;;;4.57;2.25;;;20.60;99.90;21.00;100868.00;;;;4960155;28;87309;-67
2021/09/14 07:42:55;;;;;;;6.43;3.20;;;20.70;99.90;21.20;100870.00;;;;4977473;28;96756;-67
2021/09/14 07:45:22;;;;;;;4.50;2.50;;;20.90;99.90;21.50;100870.00;;;;4978019;28;88409;-67
2021/09/14 07:47:48;;;;;;;2.38;1.85;;;21.10;99.90;21.70;100874.00;;;;4977010;28;88752;-67
2021/09/14 07:50:14;;;;;;;3.55;2.35;;;21.30;99.90;22.10;100875.00;;;;4977896;28;92855;-67
2021/09/14 07:52:39;;;;;;;2.85;2.38;;;21.70;99.90;22.30;100877.00;;;;4977488;28;96832;-66
2021/09/14 07:55:06;;;;;;;4.22;2.95;;;21.90;99.90;22.40;100877.00;;;;4976805;28;116671;-66
2021/09/14 07:57:33;;;;;;;2.38;2.10;;;22.00;99.70;22.40;100880.00;;;;4977795;28;87737;-68
2021/09/14 07:59:59;;;;;;;2.30;2.05;;;22.10;99.30;22.50;100880.00;;;;4976784;28;107602;-66
2021/09/14 08:02:25;;;;;;;2.90;2.17;;;22.20;99.50;22.70;100877.00;;;;4975425;28;88638;-66
2021/09/14 08:04:51;;;;;;;2.70;2.05;;;22.50;99.50;22.90;100875.00;;;;4972865;28;96814;-67
2021/09/14 08:07:17;;;;;;;2.00;1.77;;;22.50;99.00;23.20;100881.00;;;;4977741;28;87723;-67
2021/09/14 08:09:42;;;;;;;6.13;2.28;;;22.80;98.20;23.50;100889.00;;;;4977751;28;87924;-68
2021/09/14 08:12:08;;;;;;;3.92;2.55;;;23.10;97.90;23.80;100889.00;;;;4974871;28;88788;-67
2021/09/14 08:14:34;;;;;;;4.10;2.78;;;23.40;97.40;24.00;100886.00;;;;4976759;28;97281;-67
2021/09/14 08:17:01;;;;;;;4.10;2.28;;;23.70;95.60;24.20;100883.00;;;;4975871;28;92700;-66
2021/09/14 08:19:26;;;;;;;1.90;1.75;;;24.10;93.60;24.30;100883.00;;;;4976274;28;109204;-67
2021/09/14 08:21:53;;;;;;;2.55;2.08;;;24.00;92.70;24.40;100887.00;;;;4976201;28;116094;-67
2021/09/14 08:24:19;;;;;;;2.65;1.95;;;24.10;90.90;24.50;100889.00;;;;4977202;28;87701;-67
2021/09/14 08:26:47;;;;;;;2.00;1.80;;;24.20;90.40;24.60;100892.00;;;;4959392;28;87923;-67
2021/09/14 08:29:12;;;;;;;1.63;1.52;;;24.30;90.30;24.70;100886.00;;;;4959179;28;87162;-67
2021/09/14 08:31:38;;;;;;;2.50;2.10;;;24.30;90.00;24.90;100885.00;;;;4978159;28;88388;-67
2021/09/14 08:34:05;;;;;;;4.53;1.77;;;24.50;89.30;25.00;100876.00;;;;4976991;28;104481;-68
2021/09/14 08:36:31;;;;;;;2.67;1.75;;;24.70;88.70;25.10;100884.00;;;;4977228;28;89142;-68
2021/09/14 08:38:57;;;;;;;2.38;1.48;;;24.80;87.80;25.10;100879.00;;;;4977452;28;87895;-67
2021/09/14 08:41:24;;;;;;;2.25;2.00;;;24.80;84.50;25.10;100871.00;;;;4976638;28;117975;-67
2021/09/14 08:43:51;;;;;;;2.83;1.52;;;24.80;84.10;25.20;100872.00;;;;4977887;28;88054;-68
2021/09/14 08:46:20;;;;;;;6.20;1.73;;;24.90;82.70;25.30;100867.00;;;;4976231;28;87703;-67
2021/09/14 08:48:48;;;;;;;1.73;1.58;;;25.00;81.60;25.40;100872.00;;;;4977277;28;87798;-67
2021/09/14 08:51:14;;;;;;;2.95;1.95;;;25.10;78.10;25.50;100869.00;;;;4959373;28;87688;-67
2021/09/14 08:53:40;;;;;;;1.80;1.52;;;25.00;76.30;25.40;100870.00;;;;4977604;28;88377;-67
2021/09/14 08:56:08;;;;;;;4.20;1.88;;;25.20;75.40;25.50;100860.00;;;;4978113;28;87776;-68
2021/09/14 08:58:34;;;;;;;2.88;1.48;;;25.20;76.50;25.70;100865.00;;;;4977130;28;87973;-68
2021/09/14 09:01:00;;;;;;;3.72;1.52;;;25.30;75.10;25.90;100868.00;;;;4975601;28;118732;-68
2021/09/14 09:03:30;;;;;;;2.90;2.25;;;25.50;72.80;26.00;100872.00;;;;4977093;28;88919;-67
2021/09/14 09:05:57;;;;;;;1.92;1.45;;;25.60;72.60;26.20;100871.00;;;;4978203;28;87632;-68
2021/09/14 09:08:29;;;;;;;1.70;1.27;;;25.70;71.30;26.20;100865.00;;;;4976958;28;87879;-67
2021/09/14 09:11:10;;;;;;;1.88;1.42;;;25.80;70.10;26.50;100863.00;;;;4959077;28;88215;-67
2021/09/14 09:13:45;;;;;;;1.90;1.48;;;25.90;71.00;26.60;100861.00;;;;4957988;28;87690;-67
2021/09/14 09:16:23;;;;;;;2.72;1.40;;;26.10;69.40;26.80;100859.00;;;;4976472;28;87931;-67
2021/09/14 09:18:59;;;;;;;1.80;1.65;;;26.30;66.70;26.90;100863.00;;;;4977675;28;87266;-67
2021/09/14 09:21:39;;;;;;;1.73;1.48;;;26.40;66.10;26.90;100862.00;;;;4977844;28;88690;-68
2021/09/14 09:24:09;;;;;;;1.67;1.48;;;26.40;64.30;27.10;100860.00;;;;4970449;28;87729;-67
2021/09/14 09:26:39;;;;;;;3.00;1.73;;;26.60;64.70;27.30;100867.00;;;;4978063;28;88829;-67
2021/09/14 09:29:08;;;;;;;1.58;1.25;;;26.80;62.10;27.40;100863.00;;;;4944723;28;87807;-68
2021/09/14 09:31:36;;;;;;;3.20;2.28;;;27.00;61.50;27.40;100871.00;;;;4959347;28;88299;-67
2021/09/14 09:34:07;;;;;;;2.03;1.40;;;26.80;60.50;27.50;100876.00;;;;4956783;28;91192;-69
2021/09/14 09:36:39;;;;;;;2.00;1.70;;;27.00;60.90;27.80;100879.00;;;;4950372;28;87820;-67
2021/09/14 09:39:08;;;;;;;1.75;1.50;;;27.30;58.90;27.80;100873.00;;;;4976688;28;87928;-67
2021/09/14 09:41:38;;;;;;;2.15;1.45;;;27.20;57.00;27.80;100876.00;;;;4976663;28;97481;-67
2021/09/14 09:44:12;;;;;;;2.58;1.20;;;27.10;58.00;28.00;100871.00;;;;4960634;28;88811;-67
2021/09/14 09:46:39;;;;;;;1.52;1.15;;;27.40;58.80;28.30;100871.00;;;;4958411;28;87798;-67
2021/09/14 09:49:07;;;;;;;2.33;1.70;;;27.70;57.80;28.50;100872.00;;;;4975209;28;107310;-68
2021/09/14 09:51:35;;;;;;;1.73;1.42;;;27.90;57.60;28.80;100866.00;;;;4976179;28;89181;-67
2021/09/14 09:54:02;;;;;;;1.95;1.35;;;28.10;57.70;28.90;100873.00;;;;4976065;28;94699;-68
2021/09/14 09:56:33;;;;;;;3.40;1.35;;;28.20;56.80;29.20;100871.00;;;;4977211;28;88041;-68
2021/09/14 09:59:02;;;;;;;2.08;1.60;;;28.50;57.10;29.50;100870.00;;;;4967805;28;87629;-68
2021/09/14 10:01:28;;;;;;;2.10;1.65;;;28.70;56.10;29.60;100857.00;;;;4976302;28;88856;-67
2021/09/14 10:04:23;;;;;;;1.70;1.27;;;28.80;54.60;29.70;100865.00;;;;4975799;28;88537;-69
2021/09/14 10:06:56;;;;;;;2.53;1.80;;;29.00;54.50;29.90;100863.00;;;;4956787;28;87851;-69
2021/09/14 10:09:30;;;;;;;1.98;1.33;;;29.20;54.60;30.10;100861.00;;;;4958172;28;87031;-67
2021/09/14 10:11:57;;;;;;;2.33;1.45;;;29.20;54.10;30.30;100856.00;;;;4976453;28;88066;-67
2021/09/14 10:14:24;;;;;;;7.35;1.73;;;29.40;53.50;30.50;100856.00;;;;4976178;28;90130;-69
2021/09/14 10:16:50;;;;;;;1.65;1.45;;;29.70;53.30;30.40;100860.00;;;;4976298;28;89550;-67
2021/09/14 10:19:28;;;;;;;4.22;1.90;;;29.70;50.60;30.20;100865.00;;;;4957633;28;88044;-67
2021/09/14 10:22:06;;;;;;;3.03;2.03;;;29.60;51.20;30.30;100867.00;;;;4976634;28;87888;-69
2021/09/14 10:24:34;;;;;;;2.67;1.42;;;29.60;51.80;30.50;100864.00;;;;4975667;28;97671;-69
2021/09/14 10:27:08;;;;;;;2.70;1.95;;;29.70;51.90;30.80;100851.00;;;;4976682;28;87784;-69
2021/09/14 10:29:35;;;;;;;1.90;1.70;;;30.00;51.80;31.00;100864.00;;;;4976396;28;87633;-69
2021/09/14 10:32:13;;;;;;;1.55;1.45;;;30.30;50.00;31.00;100858.00;;;;4976732;28;87852;-69
2021/09/14 10:34:51;;;;;;;1.40;1.30;;;30.30;49.80;31.20;100855.00;;;;4976832;28;87211;-70
2021/09/14 10:37:17;;;;;;;1.25;1.15;;;30.50;50.30;31.30;100858.00;;;;4976115;28;87897;-68
2021/09/14 10:39:44;;;;;;;2.72;1.90;;;30.60;49.90;31.50;100863.00;;;;4974792;28;108186;-69
2021/09/14 10:42:14;;;;;;;2.17;1.40;;;30.70;49.20;31.50;100859.00;;;;4975189;28;92949;-69
2021/09/14 10:44:40;;;;;;;3.13;1.52;;;30.80;48.80;31.40;100854.00;;;;4976110;28;88835;-70
2021/09/14 10:47:13;;;;;;;1.40;1.20;;;30.70;47.10;31.20;100846.00;;;;4957582;28;88175;-67
2021/09/14 10:49:50;;;;;;;2.28;1.23;;;30.60;47.70;31.10;100848.00;;;;4957539;28;87751;-67
2021/09/14 10:52:38;;;;;;;9.02;1.77;;;30.50;47.40;31.10;100848.00;;;;4975547;28;87882;-67
2021/09/14 10:55:14;;;;;;;1.83;1.25;;;30.40;48.20;31.10;100851.00;;;;4957940;28;87828;-67
2021/09/14 10:57:51;;;;;;;2.63;1.77;;;30.40;47.00;30.90;100852.00;;;;4957280;28;87805;-68
2021/09/14 11:00:25;;;;;;;1.73;1.45;;;30.30;47.40;30.90;100844.00;;;;4976515;28;86993;-67
2021/09/14 11:03:03;;;;;;;1.52;1.42;;;30.20;48.30;31.30;100835.00;;;;4937422;28;88056;-68
2021/09/14 11:05:36;;;;;;;1.60;1.25;;;30.40;49.00;31.60;100846.00;;;;4956031;28;87737;-70
2021/09/14 11:08:09;;;;;;;1.90;1.42;;;30.70;48.20;31.80;100839.00;;;;4920258;28;88569;-67
2021/09/14 11:10:43;;;;;;;3.25;1.90;;;31.00;48.00;32.20;100843.00;;;;4959504;28;87660;-67
2021/09/14 11:13:18;;;;;;;2.63;1.75;;;31.30;47.70;32.50;100838.00;;;;4954023;28;87745;-68
2021/09/14 11:15:44;;;;;;;2.80;1.50;;;31.70;47.00;32.70;100835.00;;;;4979162;28;89871;-68
2021/09/14 11:18:10;;;;;;;2.40;2.00;;;31.90;45.30;32.40;100844.00;;;;4977805;28;110105;-68
2021/09/14 11:20:36;;;;;;;1.98;1.80;;;31.70;44.00;32.10;100844.00;;;;4959707;28;107083;-69
2021/09/14 11:23:03;;;;;;;1.45;1.35;;;31.50;45.30;32.20;100838.00;;;;4959586;28;97171;-68
2021/09/14 11:25:29;;;;;;;1.65;1.13;;;31.40;45.30;32.20;100837.00;;;;4979804;28;87676;-70
2021/09/14 11:28:09;;;;;;;1.90;1.70;;;31.50;45.50;32.20;100832.00;;;;4978898;28;87751;-69
2021/09/14 11:30:36;;;;;;;1.80;1.70;;;31.50;44.40;31.90;100838.00;;;;4960604;28;87990;-68
2021/09/14 11:33:03;;;;;;;1.77;1.20;;;31.30;44.30;31.80;100831.00;;;;4978137;28;89790;-68
2021/09/14 11:35:35;;;;;;;2.25;1.50;;;31.10;44.80;32.00;100829.00;;;;4979594;28;89107;-69
2021/09/14 11:38:04;;;;;;;3.25;1.42;;;31.10;45.70;32.30;100825.00;;;;4978209;28;87843;-68